• Join FlightAware (Why Join?)
  • Login
  • US Flag 
05:00AM EDT


 

Airport Tracker/Info


-or-


 

Live Flight TrackerFlight Track Log ✈ DAL1153 ✈ 10-May-2013 ✈ KATL - KLIT

Flight Track Log - Related Links

Times and Time Zones

All times are in EDT time to prevent confusion due to time zone crossing. See the DAL1153 flight status page for this flight to view local times or setup timezone preferences in your user account.

Time Position Orientation Groundspeed Altitude Reporting Facility
EDT Latitude Longitude Course Direction KTS MPH feet Rate Location/Type
02:38PM 33.6578 -84.5131 252° West 453 521 3,300  Level Atlanta Center
02:39PM 33.6667 -84.5333 298° West 247 284 4,100 3,000 Climbing Atlanta TRACON
02:40PM 33.6833 -84.6167 284° West 267 307 7,200 2,460 Climbing Atlanta TRACON
02:41PM 33.6981 -84.7703 277° West 294 338 10,800 1,740 Climbing Atlanta Center
02:42PM 33.6869 -84.8778 263° West 310 357 12,000 1,620 Climbing Atlanta Center
02:43PM 33.6736 -85.0047 263° West 363 418 14,100 2,460 Climbing Atlanta Center
02:44PM 33.7732 -84.7141 252° West  Level FlightAware Approximate
02:44PM 33.6578 -85.1444 262° West 386 444 17,000  Level Atlanta Center
02:45PM 33.6483 -85.2767 265° West 392 451 18,300 1,500 Climbing Atlanta Center
02:46PM 33.6800 -85.4169 285° West 411 473 20,100 1,680 Climbing Atlanta Center
02:47PM 33.7097 -85.5572 284° West 428 493 21,700 1,500 Climbing Atlanta Center
02:48PM 33.7350 -85.7025 282° West 440 506 23,100 1,800 Climbing Atlanta Center
02:49PM 33.7603 -85.8428 282° West 443 510 25,400 2,160 Climbing Atlanta Center
02:50PM 33.7853 -85.9808 282° West 431 496 27,500 1,980 Climbing Atlanta Center
02:51PM 33.8100 -86.1164 282° West 426 490 29,400 1,200 Climbing Atlanta Center
02:52PM 33.8328 -86.2469 282° West 419 482 30,000 300 Climbing Atlanta Center
02:53PM 33.8597 -86.3803 284° West 409 471 30,000  Level Atlanta Center
02:54PM 33.8800 -86.5108 281° West 409 471 30,000  Level Atlanta Center
02:55PM 33.9025 -86.6417 282° West 409 471 30,000  Level Atlanta Center
02:56PM 33.9247 -86.7750 281° West 409 471 30,000  Level Atlanta Center
02:58PM 33.9600 -86.9914 281° West 416 479 30,000  Level Memphis Center
02:59PM 33.9822 -87.1233 282° West 404 465 30,000  Level Memphis Center
03:00PM 34.0039 -87.2353 283° West 400 460 30,000  Level Memphis Center
03:01PM 34.0281 -87.3672 282° West 395 455 30,000  Level Memphis Center
03:02PM 34.0478 -87.4967 280° West 395 455 30,000  Level Memphis Center
03:03PM 34.0719 -87.6414 281° West 395 455 30,000  Level Memphis Center
03:04PM 34.0936 -87.7711 281° West 401 461 30,000  Level Memphis Center
03:05PM 34.1128 -87.9036 280° West 401 461 30,000  Level Memphis Center
03:06PM 34.1364 -88.0333 282° West 401 461 30,000  Level Memphis Center
03:07PM 34.1553 -88.1608 280° West 401 461 30,000  Level Memphis Center
03:08PM 34.1719 -88.2808 280° West 401 461 30,000  Level Memphis Center
03:09PM 34.1928 -88.4086 281° West 401 461 30,000  Level Memphis Center
03:10PM 34.2114 -88.5336 280° West 395 455 30,000  Level Memphis Center
03:11PM 34.2319 -88.6589 281° West 390 449 30,000  Level Memphis Center
03:12PM 34.2503 -88.7867 280° West 390 449 30,000  Level Memphis Center
03:13PM 34.2581 -88.9097 274° West 384 442 30,000  Level Memphis Center
03:14PM 34.2617 -89.0353 272° West 379 436 30,000  Level Memphis Center
03:15PM 34.2669 -89.1608 273° West 379 436 30,000  Level Memphis Center
03:16PM 34.2703 -89.2914 272° West 385 443 30,000  Level Memphis Center
03:17PM 34.2736 -89.4222 272° West 385 443 30,000 -540 Level Memphis Center
03:18PM 34.2786 -89.5678 272° West 385 443 29,000 -1,560 Descending Memphis Center
03:19PM 34.2836 -89.6986 273° West 390 449 27,000 -1,620 Descending Memphis Center
03:20PM 34.2842 -89.8317 270° West 390 449 25,800 -1,140 Descending Memphis Center
03:21PM 34.2911 -89.9600 274° West 390 449 24,800 -900 Descending Memphis Center
03:22PM 34.2933 -90.0881 271° West 385 443 24,000 -420 Descending Memphis Center
03:23PM 34.2958 -90.2139 271° West 379 436 24,000  Level Memphis Center
03:24PM 34.3000 -90.3269 273° West 386 444 24,000 -300 Level Memphis Center
03:25PM 34.3061 -90.4528 273° West 386 444 23,400 -1,860 Descending Memphis Center
03:26PM 34.3081 -90.5758 271° West 380 437 20,300 -2,760 Descending Memphis Center
03:27PM 34.3100 -90.6992 271° West 374 430 17,900 -2,520 Descending Memphis Center
03:28PM 34.3117 -90.8197 271° West 369 425 15,300 -2,220 Descending Memphis Center
03:29PM 34.3153 -90.9356 272° West 356 410 13,500 -1,800 Descending Memphis Center
03:30PM 34.3169 -91.0564 271° West 342 394 11,700 -2,040 Descending Memphis Center
03:30PM 34.3144 -91.1217 267° West 304 350 10,300 -1,620 Descending Memphis Center
03:31PM 34.3183 -91.1569 278° West 315 362 10,100 -300 Descending Memphis Center
03:31PM 34.3181 -91.1894 269° West 301 346 10,100 -120 Level Memphis Center
03:32PM 34.3219 -91.2500 274° West 294 338 10,000 -120 Descending Memphis Center
03:32PM 34.3217 -91.2828 269° West 273 314 10,000  Level Memphis Center
03:33PM 34.3233 -91.3431 272° West 277 319 10,000  Level Memphis Center
03:33PM 34.3231 -91.3783 269° West 270 311 10,000 -840 Level Memphis Center
03:34PM 34.3308 -91.4336 280° West 277 319 9,200 -1,320 Descending Memphis Center
03:34PM 34.3328 -91.4664 274° West 273 314 8,700 -1,440 Descending Memphis Center
03:35PM 34.3425 -91.5219 282° West 269 310 7,800 -1,440 Descending Memphis Center
03:35PM 34.3486 -91.5647 280° West 269 310 7,100 -1,440 Descending Memphis Center
03:36PM 34.3356 -91.6097 251° West 269 310 6,400 -1,140 Descending Memphis Center
03:36PM 34.3308 -91.6550 263° West 262 302 6,000 -420 Descending Memphis Center
03:37PM 34.3347 -91.6953 277° West 269 310 6,000  Level Memphis Center
03:37PM 34.3361 -91.7406 272° West 266 306 6,000  Level Memphis Center
03:38PM 34.3422 -91.7758 282° West 269 310 6,000  Level Memphis Center
03:38PM 34.3436 -91.8339 272° West 267 307 6,000  Level Memphis Center
03:39PM 34.3517 -91.8617 289° West 269 310 6,000  Level Memphis Center
03:39PM 34.3697 -91.9097 294° West 270 311 6,000  Level Memphis Center
03:40PM 34.3944 -91.9328 322° Northwest 261 300 6,000  Level Memphis Center
03:40PM 34.4272 -91.9761 313° West 273 314 6,000  Level Memphis Center
03:41PM 34.4478 -91.9967 320° Northwest 261 300 6,000 -720 Level Memphis Center
03:41PM 34.4811 -92.0150 336° Northwest 275 316 5,400 -1,140 Descending Memphis Center
03:42PM 34.5208 -92.0108 North 250 288 4,900 -1,440 Descending Memphis Center
03:43PM 34.5711 -91.9992 11° North 268 308 3,700 -1,500 Descending Memphis Center
03:43PM 34.5939 -91.9994 359° North 240 276 3,400 -600 Descending Memphis Center
03:43PM 34.6461 -91.9906 North 275 316 3,200 -420 Descending Memphis Center
03:44PM 34.6672 -91.9883 North 264 304 3,000 -840 Descending Memphis Center
03:45PM 34.7278 -91.9819 North 260 299 2,300 -600 Descending Memphis Center
03:45PM 34.7506 -91.9822 359° North 264 304 2,400 -300 Climbing Memphis Center
03:46PM 34.7858 -91.9956 343° North 221 254 2,000 -360 Descending Memphis Center
03:47PM 34.8039 -92.0617 288° West 204 235 1,800 -120 Descending Memphis Center
03:48PM 34.7947 -92.1222 260° West 185 213 1,800  Level Memphis Center